Terminal Aerodrome Forecast
Issued by NWS

Home | Current Version | Previous Version | Text Only | Print | Product List | Glossary On
Versions: 1 2 3 4 5 6 7 8 9 10 11 12 13 14 15 16 17 18
000
FTUS43 KOAX 102300
TAFBFF
TAF
KBFF 102320Z 1100/1124 25008KT P6SM VCTS SCT080CB BKN150
     FM110100 VRB06KT P6SM SCT100 BKN200
     FM111900 03008KT P6SM VCTS SCT070CB=

USA.gov is the U.S. government's official web portal to all federal, state and local government web resources and services.